sensor_id;sensor_type;location;lat;lon;timestamp;P1;durP1;ratioP1;P2;durP2;ratioP2
62707;SDS011;48769;51.624;5.886;2023-06-14T00:02:08;12.15;;;8.45;;
62707;SDS011;48769;51.624;5.886;2023-06-14T00:04:34;12.40;;;9.40;;
62707;SDS011;48769;51.624;5.886;2023-06-14T00:06:59;12.20;;;7.40;;
62707;SDS011;48769;51.624;5.886;2023-06-14T00:09:25;14.75;;;8.40;;
62707;SDS011;48769;51.624;5.886;2023-06-14T00:11:50;9.65;;;8.10;;
62707;SDS011;48769;51.624;5.886;2023-06-14T00:14:16;11.45;;;8.10;;
62707;SDS011;48769;51.624;5.886;2023-06-14T00:16:41;11.45;;;7.90;;
62707;SDS011;48769;51.624;5.886;2023-06-14T00:19:07;11.23;;;7.60;;
62707;SDS011;48769;51.624;5.886;2023-06-14T00:21:35;14.38;;;7.57;;
62707;SDS011;48769;51.624;5.886;2023-06-14T00:24:01;12.32;;;7.38;;
62707;SDS011;48769;51.624;5.886;2023-06-14T00:26:26;13.27;;;7.50;;
62707;SDS011;48769;51.624;5.886;2023-06-14T00:28:52;12.98;;;7.55;;
62707;SDS011;48769;51.624;5.886;2023-06-14T00:31:18;12.60;;;7.88;;
62707;SDS011;48769;51.624;5.886;2023-06-14T00:33:43;8.90;;;6.72;;
62707;SDS011;48769;51.624;5.886;2023-06-14T00:36:09;13.88;;;7.50;;
62707;SDS011;48769;51.624;5.886;2023-06-14T00:38:34;15.32;;;7.32;;
62707;SDS011;48769;51.624;5.886;2023-06-14T00:41:00;13.45;;;6.70;;
62707;SDS011;48769;51.624;5.886;2023-06-14T00:43:25;12.80;;;6.95;;
62707;SDS011;48769;51.624;5.886;2023-06-14T00:45:50;10.68;;;6.72;;
62707;SDS011;48769;51.624;5.886;2023-06-14T00:48:16;9.95;;;6.95;;
62707;SDS011;48769;51.624;5.886;2023-06-14T00:50:42;10.95;;;5.82;;
62707;SDS011;48769;51.624;5.886;2023-06-14T00:53:10;10.35;;;6.13;;
62707;SDS011;48769;51.624;5.886;2023-06-14T00:55:40;9.80;;;6.47;;
62707;SDS011;48769;51.624;5.886;2023-06-14T00:58:06;9.57;;;6.50;;
62707;SDS011;48769;51.624;5.886;2023-06-14T01:00:31;11.68;;;7.25;;
62707;SDS011;48769;51.624;5.886;2023-06-14T01:02:56;13.40;;;7.43;;
62707;SDS011;48769;51.624;5.886;2023-06-14T01:05:22;9.50;;;6.28;;
62707;SDS011;48769;51.624;5.886;2023-06-14T01:15:44;11.45;;;5.75;;
62707;SDS011;48769;51.624;5.886;2023-06-14T01:18:11;8.70;;;6.43;;
62707;SDS011;48769;51.624;5.886;2023-06-14T01:20:42;12.70;;;6.70;;
62707;SDS011;48769;51.624;5.886;2023-06-14T01:23:09;9.35;;;6.00;;
62707;SDS011;48769;51.624;5.886;2023-06-14T01:25:37;11.10;;;6.28;;
62707;SDS011;48769;51.624;5.886;2023-06-14T01:28:04;12.77;;;6.40;;
62707;SDS011;48769;51.624;5.886;2023-06-14T01:30:35;8.93;;;6.38;;
62707;SDS011;48769;51.624;5.886;2023-06-14T01:33:02;11.20;;;6.15;;
62707;SDS011;48769;51.624;5.886;2023-06-14T01:35:30;11.40;;;6.40;;
62707;SDS011;48769;51.624;5.886;2023-06-14T01:37:55;11.23;;;6.60;;
62707;SDS011;48769;51.624;5.886;2023-06-14T01:40:21;9.40;;;6.15;;
62707;SDS011;48769;51.624;5.886;2023-06-14T01:42:49;11.02;;;6.65;;
62707;SDS011;48769;51.624;5.886;2023-06-14T01:45:15;14.05;;;6.35;;
62707;SDS011;48769;51.624;5.886;2023-06-14T01:47:42;12.25;;;6.07;;
62707;SDS011;48769;51.624;5.886;2023-06-14T01:50:09;15.07;;;6.28;;
62707;SDS011;48769;51.624;5.886;2023-06-14T01:52:34;11.55;;;6.43;;
62707;SDS011;48769;51.624;5.886;2023-06-14T01:55:01;11.90;;;6.35;;
62707;SDS011;48769;51.624;5.886;2023-06-14T01:57:27;11.90;;;6.45;;
62707;SDS011;48769;51.624;5.886;2023-06-14T01:59:52;8.10;;;5.75;;
62707;SDS011;48769;51.624;5.886;2023-06-14T02:02:17;10.02;;;6.97;;
62707;SDS011;48769;51.624;5.886;2023-06-14T02:04:43;10.50;;;6.03;;
62707;SDS011;48769;51.624;5.886;2023-06-14T02:07:08;10.32;;;6.95;;
62707;SDS011;48769;51.624;5.886;2023-06-14T02:09:34;12.35;;;6.03;;
62707;SDS011;48769;51.624;5.886;2023-06-14T02:12:02;12.73;;;6.28;;
62707;SDS011;48769;51.624;5.886;2023-06-14T02:14:27;13.10;;;6.18;;
62707;SDS011;48769;51.624;5.886;2023-06-14T02:16:53;12.90;;;6.18;;
62707;SDS011;48769;51.624;5.886;2023-06-14T02:19:18;10.55;;;6.15;;
62707;SDS011;48769;51.624;5.886;2023-06-14T02:21:44;7.63;;;6.35;;
62707;SDS011;48769;51.624;5.886;2023-06-14T02:24:10;9.52;;;6.60;;
62707;SDS011;48769;51.624;5.886;2023-06-14T02:26:36;8.05;;;5.97;;
62707;SDS011;48769;51.624;5.886;2023-06-14T02:29:03;12.68;;;6.75;;
62707;SDS011;48769;51.624;5.886;2023-06-14T02:31:30;13.35;;;6.18;;
62707;SDS011;48769;51.624;5.886;2023-06-14T02:33:55;10.68;;;6.32;;
62707;SDS011;48769;51.624;5.886;2023-06-14T02:36:21;9.05;;;5.75;;
62707;SDS011;48769;51.624;5.886;2023-06-14T02:38:47;9.02;;;6.10;;
62707;SDS011;48769;51.624;5.886;2023-06-14T02:41:12;10.20;;;6.10;;
62707;SDS011;48769;51.624;5.886;2023-06-14T02:43:37;8.02;;;5.25;;
62707;SDS011;48769;51.624;5.886;2023-06-14T02:46:03;9.05;;;6.00;;
62707;SDS011;48769;51.624;5.886;2023-06-14T02:48:28;15.90;;;5.78;;
62707;SDS011;48769;51.624;5.886;2023-06-14T02:50:55;10.27;;;6.57;;
62707;SDS011;48769;51.624;5.886;2023-06-14T02:53:21;10.55;;;6.22;;
62707;SDS011;48769;51.624;5.886;2023-06-14T02:55:46;8.90;;;6.25;;
62707;SDS011;48769;51.624;5.886;2023-06-14T02:58:13;7.68;;;5.65;;
62707;SDS011;48769;51.624;5.886;2023-06-14T03:00:39;9.45;;;6.03;;
62707;SDS011;48769;51.624;5.886;2023-06-14T03:03:05;9.77;;;6.82;;
62707;SDS011;48769;51.624;5.886;2023-06-14T03:05:37;10.18;;;6.05;;
62707;SDS011;48769;51.624;5.886;2023-06-14T03:08:05;7.93;;;6.22;;
62707;SDS011;48769;51.624;5.886;2023-06-14T03:10:32;11.23;;;6.10;;
62707;SDS011;48769;51.624;5.886;2023-06-14T03:12:57;18.08;;;6.47;;
62707;SDS011;48769;51.624;5.886;2023-06-14T03:15:22;8.43;;;6.03;;
62707;SDS011;48769;51.624;5.886;2023-06-14T03:17:49;9.07;;;5.80;;
62707;SDS011;48769;51.624;5.886;2023-06-14T03:20:15;15.90;;;5.68;;
62707;SDS011;48769;51.624;5.886;2023-06-14T03:22:41;16.45;;;6.22;;
62707;SDS011;48769;51.624;5.886;2023-06-14T03:25:06;11.23;;;7.03;;
62707;SDS011;48769;51.624;5.886;2023-06-14T03:27:33;11.90;;;6.45;;
62707;SDS011;48769;51.624;5.886;2023-06-14T03:29:58;10.70;;;6.00;;
62707;SDS011;48769;51.624;5.886;2023-06-14T03:32:23;11.55;;;5.75;;
62707;SDS011;48769;51.624;5.886;2023-06-14T03:34:48;7.70;;;5.93;;
62707;SDS011;48769;51.624;5.886;2023-06-14T03:37:15;6.50;;;5.82;;
62707;SDS011;48769;51.624;5.886;2023-06-14T03:39:41;10.15;;;5.68;;
62707;SDS011;48769;51.624;5.886;2023-06-14T03:42:11;10.82;;;6.32;;
62707;SDS011;48769;51.624;5.886;2023-06-14T03:44:37;10.88;;;5.90;;
62707;SDS011;48769;51.624;5.886;2023-06-14T03:47:03;11.02;;;5.35;;
62707;SDS011;48769;51.624;5.886;2023-06-14T03:49:29;8.68;;;5.70;;
62707;SDS011;48769;51.624;5.886;2023-06-14T03:51:55;10.52;;;6.05;;
62707;SDS011;48769;51.624;5.886;2023-06-14T03:54:20;13.05;;;5.95;;
62707;SDS011;48769;51.624;5.886;2023-06-14T03:56:46;8.25;;;5.40;;
62707;SDS011;48769;51.624;5.886;2023-06-14T03:59:12;14.15;;;6.70;;
62707;SDS011;48769;51.624;5.886;2023-06-14T04:01:37;14.98;;;6.43;;
62707;SDS011;48769;51.624;5.886;2023-06-14T04:04:02;9.40;;;5.75;;
62707;SDS011;48769;51.624;5.886;2023-06-14T04:06:28;11.93;;;5.78;;
62707;SDS011;48769;51.624;5.886;2023-06-14T04:08:57;7.55;;;5.03;;
62707;SDS011;48769;51.624;5.886;2023-06-14T04:11:29;10.30;;;5.63;;
62707;SDS011;48769;51.624;5.886;2023-06-14T04:13:54;13.45;;;5.82;;
62707;SDS011;48769;51.624;5.886;2023-06-14T04:16:21;7.68;;;5.45;;
62707;SDS011;48769;51.624;5.886;2023-06-14T04:18:47;11.18;;;5.40;;
62707;SDS011;48769;51.624;5.886;2023-06-14T04:21:13;10.93;;;5.03;;
62707;SDS011;48769;51.624;5.886;2023-06-14T04:23:38;10.98;;;5.70;;
62707;SDS011;48769;51.624;5.886;2023-06-14T04:26:04;7.03;;;5.07;;
62707;SDS011;48769;51.624;5.886;2023-06-14T04:28:29;7.63;;;5.18;;
62707;SDS011;48769;51.624;5.886;2023-06-14T04:30:54;9.30;;;5.55;;
62707;SDS011;48769;51.624;5.886;2023-06-14T04:33:20;8.52;;;5.05;;
62707;SDS011;48769;51.624;5.886;2023-06-14T04:35:45;10.88;;;5.55;;
62707;SDS011;48769;51.624;5.886;2023-06-14T04:38:12;7.43;;;4.90;;
62707;SDS011;48769;51.624;5.886;2023-06-14T04:40:38;8.38;;;5.32;;
62707;SDS011;48769;51.624;5.886;2023-06-14T04:43:10;7.85;;;5.57;;
62707;SDS011;48769;51.624;5.886;2023-06-14T04:45:42;8.07;;;4.90;;
62707;SDS011;48769;51.624;5.886;2023-06-14T04:48:10;10.45;;;5.70;;
62707;SDS011;48769;51.624;5.886;2023-06-14T04:50:35;7.32;;;4.80;;
62707;SDS011;48769;51.624;5.886;2023-06-14T04:53:01;7.85;;;5.05;;
62707;SDS011;48769;51.624;5.886;2023-06-14T04:55:26;10.38;;;5.03;;
62707;SDS011;48769;51.624;5.886;2023-06-14T04:57:52;9.52;;;5.13;;
62707;SDS011;48769;51.624;5.886;2023-06-14T05:00:20;9.27;;;4.85;;
62707;SDS011;48769;51.624;5.886;2023-06-14T05:02:46;11.45;;;5.65;;
62707;SDS011;48769;51.624;5.886;2023-06-14T05:05:12;6.55;;;4.60;;
62707;SDS011;48769;51.624;5.886;2023-06-14T05:07:37;9.52;;;5.30;;
62707;SDS011;48769;51.624;5.886;2023-06-14T05:10:03;9.38;;;5.47;;
62707;SDS011;48769;51.624;5.886;2023-06-14T05:12:30;14.95;;;5.43;;
62707;SDS011;48769;51.624;5.886;2023-06-14T05:14:55;9.15;;;5.45;;
62707;SDS011;48769;51.624;5.886;2023-06-14T05:17:23;13.82;;;6.80;;
62707;SDS011;48769;51.624;5.886;2023-06-14T05:19:48;9.75;;;4.60;;
62707;SDS011;48769;51.624;5.886;2023-06-14T05:22:14;14.35;;;5.57;;
62707;SDS011;48769;51.624;5.886;2023-06-14T05:24:39;27.98;;;6.10;;
62707;SDS011;48769;51.624;5.886;2023-06-14T05:27:05;8.90;;;5.32;;
62707;SDS011;48769;51.624;5.886;2023-06-14T05:29:30;6.68;;;5.03;;
62707;SDS011;48769;51.624;5.886;2023-06-14T05:31:55;5.80;;;4.72;;
62707;SDS011;48769;51.624;5.886;2023-06-14T05:34:21;14.90;;;5.38;;
62707;SDS011;48769;51.624;5.886;2023-06-14T05:36:46;8.20;;;5.10;;
62707;SDS011;48769;51.624;5.886;2023-06-14T05:39:11;9.50;;;4.60;;
62707;SDS011;48769;51.624;5.886;2023-06-14T05:41:37;10.95;;;5.18;;
62707;SDS011;48769;51.624;5.886;2023-06-14T05:44:02;10.25;;;5.13;;
62707;SDS011;48769;51.624;5.886;2023-06-14T05:46:27;11.40;;;4.93;;
62707;SDS011;48769;51.624;5.886;2023-06-14T05:48:53;16.90;;;5.38;;
62707;SDS011;48769;51.624;5.886;2023-06-14T05:51:19;10.20;;;4.45;;
62707;SDS011;48769;51.624;5.886;2023-06-14T05:53:46;7.80;;;4.93;;
62707;SDS011;48769;51.624;5.886;2023-06-14T05:56:12;11.00;;;5.20;;
62707;SDS011;48769;51.624;5.886;2023-06-14T05:58:38;10.07;;;4.63;;
62707;SDS011;48769;51.624;5.886;2023-06-14T06:01:03;11.65;;;5.43;;
62707;SDS011;48769;51.624;5.886;2023-06-14T06:03:28;8.02;;;4.20;;
62707;SDS011;48769;51.624;5.886;2023-06-14T06:05:57;10.05;;;4.60;;
62707;SDS011;48769;51.624;5.886;2023-06-14T06:08:22;9.73;;;4.88;;
62707;SDS011;48769;51.624;5.886;2023-06-14T06:10:48;9.35;;;4.22;;
62707;SDS011;48769;51.624;5.886;2023-06-14T06:13:13;7.65;;;4.50;;
62707;SDS011;48769;51.624;5.886;2023-06-14T06:15:38;9.05;;;4.70;;
62707;SDS011;48769;51.624;5.886;2023-06-14T06:18:04;10.43;;;4.63;;
62707;SDS011;48769;51.624;5.886;2023-06-14T06:20:29;14.07;;;4.55;;
62707;SDS011;48769;51.624;5.886;2023-06-14T06:22:59;10.07;;;4.65;;
62707;SDS011;48769;51.624;5.886;2023-06-14T06:25:25;4.57;;;3.92;;
62707;SDS011;48769;51.624;5.886;2023-06-14T06:27:51;9.90;;;4.28;;
62707;SDS011;48769;51.624;5.886;2023-06-14T06:30:23;10.03;;;4.73;;
62707;SDS011;48769;51.624;5.886;2023-06-14T06:32:49;9.27;;;4.20;;
62707;SDS011;48769;51.624;5.886;2023-06-14T06:35:15;10.13;;;4.82;;
62707;SDS011;48769;51.624;5.886;2023-06-14T06:37:41;7.75;;;4.03;;
62707;SDS011;48769;51.624;5.886;2023-06-14T06:40:07;8.75;;;4.28;;
62707;SDS011;48769;51.624;5.886;2023-06-14T06:42:33;10.27;;;4.43;;
62707;SDS011;48769;51.624;5.886;2023-06-14T06:44:59;10.80;;;5.07;;
62707;SDS011;48769;51.624;5.886;2023-06-14T06:47:24;6.97;;;4.00;;
62707;SDS011;48769;51.624;5.886;2023-06-14T06:49:50;9.70;;;4.32;;
62707;SDS011;48769;51.624;5.886;2023-06-14T06:52:15;11.38;;;4.40;;
62707;SDS011;48769;51.624;5.886;2023-06-14T06:54:41;9.77;;;4.80;;
62707;SDS011;48769;51.624;5.886;2023-06-14T06:57:06;9.82;;;4.60;;
62707;SDS011;48769;51.624;5.886;2023-06-14T06:59:32;15.10;;;4.30;;
62707;SDS011;48769;51.624;5.886;2023-06-14T07:01:57;7.55;;;4.15;;
62707;SDS011;48769;51.624;5.886;2023-06-14T07:04:23;10.02;;;3.70;;
62707;SDS011;48769;51.624;5.886;2023-06-14T07:06:48;9.35;;;4.45;;
62707;SDS011;48769;51.624;5.886;2023-06-14T07:09:14;9.90;;;4.13;;
62707;SDS011;48769;51.624;5.886;2023-06-14T07:11:41;6.60;;;3.60;;
62707;SDS011;48769;51.624;5.886;2023-06-14T07:14:07;6.32;;;3.83;;
62707;SDS011;48769;51.624;5.886;2023-06-14T07:16:33;9.35;;;4.25;;
62707;SDS011;48769;51.624;5.886;2023-06-14T07:18:58;9.45;;;4.40;;
62707;SDS011;48769;51.624;5.886;2023-06-14T07:21:23;7.43;;;4.10;;
62707;SDS011;48769;51.624;5.886;2023-06-14T07:23:51;8.55;;;3.92;;
62707;SDS011;48769;51.624;5.886;2023-06-14T07:26:16;7.85;;;3.72;;
62707;SDS011;48769;51.624;5.886;2023-06-14T07:28:42;11.88;;;3.97;;
62707;SDS011;48769;51.624;5.886;2023-06-14T07:31:10;9.93;;;4.57;;
62707;SDS011;48769;51.624;5.886;2023-06-14T07:33:35;11.93;;;4.03;;
62707;SDS011;48769;51.624;5.886;2023-06-14T07:36:01;6.78;;;3.67;;
62707;SDS011;48769;51.624;5.886;2023-06-14T07:38:26;11.05;;;4.20;;
62707;SDS011;48769;51.624;5.886;2023-06-14T07:40:52;8.35;;;3.55;;
62707;SDS011;48769;51.624;5.886;2023-06-14T07:43:17;8.30;;;3.55;;
62707;SDS011;48769;51.624;5.886;2023-06-14T07:45:42;7.05;;;3.30;;
62707;SDS011;48769;51.624;5.886;2023-06-14T07:48:08;6.03;;;3.08;;
62707;SDS011;48769;51.624;5.886;2023-06-14T07:53:21;7.35;;;3.15;;
62707;SDS011;48769;51.624;5.886;2023-06-14T07:55:46;6.88;;;2.90;;
62707;SDS011;48769;51.624;5.886;2023-06-14T07:58:12;9.82;;;2.90;;
62707;SDS011;48769;51.624;5.886;2023-06-14T08:00:38;5.15;;;2.78;;
62707;SDS011;48769;51.624;5.886;2023-06-14T08:03:03;7.15;;;2.95;;
62707;SDS011;48769;51.624;5.886;2023-06-14T08:05:29;3.50;;;2.35;;
62707;SDS011;48769;51.624;5.886;2023-06-14T08:07:55;4.88;;;1.88;;
62707;SDS011;48769;51.624;5.886;2023-06-14T08:10:20;5.50;;;1.83;;
62707;SDS011;48769;51.624;5.886;2023-06-14T08:12:46;5.30;;;2.05;;
62707;SDS011;48769;51.624;5.886;2023-06-14T08:15:13;6.13;;;2.25;;
62707;SDS011;48769;51.624;5.886;2023-06-14T08:17:38;2.97;;;2.15;;
62707;SDS011;48769;51.624;5.886;2023-06-14T08:20:04;2.83;;;1.63;;
62707;SDS011;48769;51.624;5.886;2023-06-14T08:22:30;3.42;;;1.77;;
62707;SDS011;48769;51.624;5.886;2023-06-14T08:24:59;4.70;;;1.85;;
62707;SDS011;48769;51.624;5.886;2023-06-14T08:27:24;4.15;;;1.77;;
62707;SDS011;48769;51.624;5.886;2023-06-14T08:29:50;6.35;;;2.15;;
62707;SDS011;48769;51.624;5.886;2023-06-14T08:32:15;6.90;;;2.00;;
62707;SDS011;48769;51.624;5.886;2023-06-14T08:34:40;2.92;;;1.40;;
62707;SDS011;48769;51.624;5.886;2023-06-14T08:37:06;3.28;;;1.60;;
62707;SDS011;48769;51.624;5.886;2023-06-14T08:39:31;3.63;;;1.52;;
62707;SDS011;48769;51.624;5.886;2023-06-14T08:41:57;7.72;;;1.88;;
62707;SDS011;48769;51.624;5.886;2023-06-14T08:44:22;3.35;;;2.03;;
62707;SDS011;48769;51.624;5.886;2023-06-14T08:46:48;4.30;;;1.48;;
62707;SDS011;48769;51.624;5.886;2023-06-14T08:49:16;4.03;;;1.52;;
62707;SDS011;48769;51.624;5.886;2023-06-14T08:51:50;2.78;;;1.92;;
62707;SDS011;48769;51.624;5.886;2023-06-14T08:54:22;4.35;;;1.80;;
62707;SDS011;48769;51.624;5.886;2023-06-14T08:56:49;7.60;;;1.58;;
62707;SDS011;48769;51.624;5.886;2023-06-14T08:59:16;4.57;;;2.00;;
62707;SDS011;48769;51.624;5.886;2023-06-14T09:01:43;3.20;;;1.73;;
62707;SDS011;48769;51.624;5.886;2023-06-14T09:04:10;6.05;;;2.20;;
62707;SDS011;48769;51.624;5.886;2023-06-14T09:06:38;6.00;;;1.65;;
62707;SDS011;48769;51.624;5.886;2023-06-14T09:09:27;3.92;;;1.90;;
62707;SDS011;48769;51.624;5.886;2023-06-14T09:11:55;2.22;;;1.52;;
62707;SDS011;48769;51.624;5.886;2023-06-14T09:14:26;2.67;;;2.00;;
62707;SDS011;48769;51.624;5.886;2023-06-14T09:17:07;4.85;;;1.90;;
62707;SDS011;48769;51.624;5.886;2023-06-14T09:19:34;3.25;;;1.92;;
62707;SDS011;48769;51.624;5.886;2023-06-14T09:22:06;4.70;;;2.25;;
62707;SDS011;48769;51.624;5.886;2023-06-14T09:24:31;5.72;;;1.98;;
62707;SDS011;48769;51.624;5.886;2023-06-14T09:26:56;3.45;;;2.28;;
62707;SDS011;48769;51.624;5.886;2023-06-14T09:29:23;5.07;;;1.90;;
62707;SDS011;48769;51.624;5.886;2023-06-14T09:31:48;9.25;;;2.20;;
62707;SDS011;48769;51.624;5.886;2023-06-14T09:34:16;7.90;;;2.30;;
62707;SDS011;48769;51.624;5.886;2023-06-14T09:36:43;6.95;;;2.42;;
62707;SDS011;48769;51.624;5.886;2023-06-14T09:39:08;7.75;;;2.22;;
62707;SDS011;48769;51.624;5.886;2023-06-14T09:41:37;7.10;;;2.50;;
62707;SDS011;48769;51.624;5.886;2023-06-14T09:44:05;6.60;;;2.47;;
62707;SDS011;48769;51.624;5.886;2023-06-14T09:46:32;3.67;;;2.30;;
62707;SDS011;48769;51.624;5.886;2023-06-14T09:48:58;7.30;;;2.25;;
62707;SDS011;48769;51.624;5.886;2023-06-14T09:51:24;4.57;;;2.50;;
62707;SDS011;48769;51.624;5.886;2023-06-14T09:53:51;5.03;;;2.30;;
62707;SDS011;48769;51.624;5.886;2023-06-14T09:56:19;2.47;;;1.75;;
62707;SDS011;48769;51.624;5.886;2023-06-14T09:58:49;5.30;;;2.33;;
62707;SDS011;48769;51.624;5.886;2023-06-14T10:01:20;2.72;;;1.67;;
62707;SDS011;48769;51.624;5.886;2023-06-14T10:03:46;3.45;;;2.20;;
62707;SDS011;48769;51.624;5.886;2023-06-14T10:06:15;3.15;;;1.90;;
62707;SDS011;48769;51.624;5.886;2023-06-14T10:08:41;5.53;;;1.90;;
62707;SDS011;48769;51.624;5.886;2023-06-14T10:11:07;2.40;;;1.88;;
62707;SDS011;48769;51.624;5.886;2023-06-14T10:13:36;4.28;;;2.03;;
62707;SDS011;48769;51.624;5.886;2023-06-14T10:16:07;5.57;;;2.25;;
62707;SDS011;48769;51.624;5.886;2023-06-14T10:23:42;7.25;;;2.22;;
62707;SDS011;48769;51.624;5.886;2023-06-14T10:26:13;6.95;;;1.98;;
62707;SDS011;48769;51.624;5.886;2023-06-14T10:28:43;8.73;;;2.10;;
62707;SDS011;48769;51.624;5.886;2023-06-14T10:31:22;7.78;;;2.00;;
62707;SDS011;48769;51.624;5.886;2023-06-14T10:33:49;3.35;;;2.10;;
62707;SDS011;48769;51.624;5.886;2023-06-14T10:38:59;2.30;;;1.48;;
62707;SDS011;48769;51.624;5.886;2023-06-14T10:41:53;4.97;;;2.45;;
62707;SDS011;48769;51.624;5.886;2023-06-14T10:46:49;2.20;;;1.93;;
62707;SDS011;48769;51.624;5.886;2023-06-14T10:49:20;4.20;;;1.85;;
62707;SDS011;48769;51.624;5.886;2023-06-14T10:52:07;3.78;;;1.70;;
62707;SDS011;48769;51.624;5.886;2023-06-14T10:54:36;4.40;;;1.75;;
62707;SDS011;48769;51.624;5.886;2023-06-14T10:57:02;4.30;;;1.90;;
62707;SDS011;48769;51.624;5.886;2023-06-14T10:59:32;6.60;;;1.58;;
62707;SDS011;48769;51.624;5.886;2023-06-14T11:04:51;4.05;;;1.77;;
62707;SDS011;48769;51.624;5.886;2023-06-14T11:10:00;2.70;;;1.80;;
62707;SDS011;48769;51.624;5.886;2023-06-14T11:12:28;3.58;;;1.58;;
62707;SDS011;48769;51.624;5.886;2023-06-14T11:14:58;6.22;;;2.42;;
62707;SDS011;48769;51.624;5.886;2023-06-14T11:17:24;2.78;;;1.88;;
62707;SDS011;48769;51.624;5.886;2023-06-14T11:20:06;5.82;;;2.28;;
62707;SDS011;48769;51.624;5.886;2023-06-14T11:22:38;3.90;;;1.73;;
62707;SDS011;48769;51.624;5.886;2023-06-14T11:25:04;4.60;;;1.98;;
62707;SDS011;48769;51.624;5.886;2023-06-14T11:27:33;5.00;;;1.90;;
62707;SDS011;48769;51.624;5.886;2023-06-14T11:29:58;3.70;;;2.15;;
62707;SDS011;48769;51.624;5.886;2023-06-14T11:32:24;5.05;;;1.92;;
62707;SDS011;48769;51.624;5.886;2023-06-14T11:34:49;8.43;;;1.88;;
62707;SDS011;48769;51.624;5.886;2023-06-14T11:37:16;3.40;;;1.95;;
62707;SDS011;48769;51.624;5.886;2023-06-14T11:39:45;4.50;;;1.48;;
62707;SDS011;48769;51.624;5.886;2023-06-14T11:42:14;3.90;;;2.00;;
62707;SDS011;48769;51.624;5.886;2023-06-14T11:44:40;2.38;;;1.90;;
62707;SDS011;48769;51.624;5.886;2023-06-14T11:47:06;8.43;;;2.00;;
62707;SDS011;48769;51.624;5.886;2023-06-14T11:49:35;3.13;;;1.55;;
62707;SDS011;48769;51.624;5.886;2023-06-14T11:52:01;5.47;;;1.98;;
62707;SDS011;48769;51.624;5.886;2023-06-14T11:54:26;3.80;;;2.10;;
62707;SDS011;48769;51.624;5.886;2023-06-14T11:56:52;2.60;;;1.98;;
62707;SDS011;48769;51.624;5.886;2023-06-14T11:59:17;4.70;;;1.80;;
62707;SDS011;48769;51.624;5.886;2023-06-14T12:01:45;3.28;;;1.92;;
62707;SDS011;48769;51.624;5.886;2023-06-14T12:04:10;3.08;;;1.90;;
62707;SDS011;48769;51.624;5.886;2023-06-14T12:06:35;5.15;;;1.83;;
62707;SDS011;48769;51.624;5.886;2023-06-14T12:09:04;5.78;;;1.98;;
62707;SDS011;48769;51.624;5.886;2023-06-14T12:11:43;2.03;;;1.65;;
62707;SDS011;48769;51.624;5.886;2023-06-14T12:14:09;7.25;;;1.85;;
62707;SDS011;48769;51.624;5.886;2023-06-14T12:16:36;1.90;;;1.65;;
62707;SDS011;48769;51.624;5.886;2023-06-14T12:19:16;9.05;;;2.30;;
62707;SDS011;48769;51.624;5.886;2023-06-14T12:21:42;7.35;;;1.92;;
62707;SDS011;48769;51.624;5.886;2023-06-14T12:24:12;2.78;;;1.90;;
62707;SDS011;48769;51.624;5.886;2023-06-14T12:26:37;3.38;;;1.98;;
62707;SDS011;48769;51.624;5.886;2023-06-14T12:29:05;7.55;;;2.17;;
62707;SDS011;48769;51.624;5.886;2023-06-14T12:31:31;5.13;;;1.90;;
62707;SDS011;48769;51.624;5.886;2023-06-14T12:33:56;3.80;;;2.00;;
62707;SDS011;48769;51.624;5.886;2023-06-14T12:36:21;3.70;;;1.60;;
62707;SDS011;48769;51.624;5.886;2023-06-14T12:38:47;15.70;;;2.60;;
62707;SDS011;48769;51.624;5.886;2023-06-14T12:41:12;8.73;;;2.00;;
62707;SDS011;48769;51.624;5.886;2023-06-14T12:43:39;3.05;;;1.80;;
62707;SDS011;48769;51.624;5.886;2023-06-14T12:46:04;3.40;;;1.83;;
62707;SDS011;48769;51.624;5.886;2023-06-14T12:48:30;4.38;;;1.92;;
62707;SDS011;48769;51.624;5.886;2023-06-14T12:50:56;3.42;;;1.90;;
62707;SDS011;48769;51.624;5.886;2023-06-14T12:53:22;2.35;;;1.80;;
62707;SDS011;48769;51.624;5.886;2023-06-14T12:55:48;5.15;;;1.83;;
62707;SDS011;48769;51.624;5.886;2023-06-14T12:58:14;2.03;;;1.50;;
62707;SDS011;48769;51.624;5.886;2023-06-14T13:00:41;5.40;;;1.52;;
62707;SDS011;48769;51.624;5.886;2023-06-14T13:03:07;5.50;;;1.58;;
62707;SDS011;48769;51.624;5.886;2023-06-14T13:05:35;6.30;;;1.30;;
62707;SDS011;48769;51.624;5.886;2023-06-14T13:08:02;2.10;;;1.20;;
62707;SDS011;48769;51.624;5.886;2023-06-14T13:10:27;7.90;;;1.27;;
62707;SDS011;48769;51.624;5.886;2023-06-14T13:12:53;3.95;;;1.00;;
62707;SDS011;48769;51.624;5.886;2023-06-14T13:15:18;3.25;;;1.10;;
62707;SDS011;48769;51.624;5.886;2023-06-14T13:17:43;8.95;;;1.30;;
62707;SDS011;48769;51.624;5.886;2023-06-14T13:20:13;2.45;;;1.13;;
62707;SDS011;48769;51.624;5.886;2023-06-14T13:22:39;5.57;;;0.98;;
62707;SDS011;48769;51.624;5.886;2023-06-14T13:25:06;2.15;;;0.98;;
62707;SDS011;48769;51.624;5.886;2023-06-14T13:27:32;2.30;;;1.30;;
62707;SDS011;48769;51.624;5.886;2023-06-14T13:29:57;7.50;;;1.40;;
62707;SDS011;48769;51.624;5.886;2023-06-14T13:32:22;6.00;;;1.05;;
62707;SDS011;48769;51.624;5.886;2023-06-14T13:34:48;4.25;;;1.10;;
62707;SDS011;48769;51.624;5.886;2023-06-14T13:37:14;2.13;;;1.10;;
62707;SDS011;48769;51.624;5.886;2023-06-14T13:39:39;3.05;;;0.95;;
62707;SDS011;48769;51.624;5.886;2023-06-14T13:42:08;3.67;;;1.25;;
62707;SDS011;48769;51.624;5.886;2023-06-14T13:44:33;2.50;;;1.15;;
62707;SDS011;48769;51.624;5.886;2023-06-14T13:46:59;2.97;;;1.20;;
62707;SDS011;48769;51.624;5.886;2023-06-14T13:49:25;5.57;;;1.10;;
62707;SDS011;48769;51.624;5.886;2023-06-14T13:51:50;2.63;;;0.95;;
62707;SDS011;48769;51.624;5.886;2023-06-14T13:54:18;2.90;;;1.30;;
62707;SDS011;48769;51.624;5.886;2023-06-14T13:56:45;4.82;;;1.33;;
62707;SDS011;48769;51.624;5.886;2023-06-14T13:59:11;5.03;;;1.30;;
62707;SDS011;48769;51.624;5.886;2023-06-14T14:01:37;2.78;;;1.58;;
62707;SDS011;48769;51.624;5.886;2023-06-14T14:04:02;4.40;;;1.55;;
62707;SDS011;48769;51.624;5.886;2023-06-14T14:06:28;5.65;;;1.45;;
62707;SDS011;48769;51.624;5.886;2023-06-14T14:08:53;3.97;;;1.80;;
62707;SDS011;48769;51.624;5.886;2023-06-14T14:11:19;3.92;;;1.40;;
62707;SDS011;48769;51.624;5.886;2023-06-14T14:13:45;3.22;;;1.23;;
62707;SDS011;48769;51.624;5.886;2023-06-14T14:16:11;6.57;;;1.42;;
62707;SDS011;48769;51.624;5.886;2023-06-14T14:18:38;3.83;;;1.48;;
62707;SDS011;48769;51.624;5.886;2023-06-14T14:21:03;1.95;;;1.38;;
62707;SDS011;48769;51.624;5.886;2023-06-14T14:23:29;3.90;;;1.38;;
62707;SDS011;48769;51.624;5.886;2023-06-14T14:25:54;4.00;;;1.80;;
62707;SDS011;48769;51.624;5.886;2023-06-14T14:28:20;3.33;;;1.23;;
62707;SDS011;48769;51.624;5.886;2023-06-14T14:30:46;7.45;;;1.10;;
62707;SDS011;48769;51.624;5.886;2023-06-14T14:33:12;6.57;;;1.58;;
62707;SDS011;48769;51.624;5.886;2023-06-14T14:35:42;2.03;;;1.42;;
62707;SDS011;48769;51.624;5.886;2023-06-14T14:38:09;3.08;;;1.50;;
62707;SDS011;48769;51.624;5.886;2023-06-14T14:40:34;3.83;;;1.70;;
62707;SDS011;48769;51.624;5.886;2023-06-14T14:43:00;1.52;;;1.30;;
62707;SDS011;48769;51.624;5.886;2023-06-14T14:45:25;3.55;;;1.52;;
62707;SDS011;48769;51.624;5.886;2023-06-14T14:47:50;2.63;;;1.38;;
62707;SDS011;48769;51.624;5.886;2023-06-14T14:50:16;7.65;;;1.50;;
62707;SDS011;48769;51.624;5.886;2023-06-14T14:52:41;1.40;;;1.30;;
62707;SDS011;48769;51.624;5.886;2023-06-14T14:55:07;6.95;;;1.38;;
62707;SDS011;48769;51.624;5.886;2023-06-14T14:57:33;1.42;;;1.33;;
62707;SDS011;48769;51.624;5.886;2023-06-14T14:59:58;3.58;;;1.42;;
62707;SDS011;48769;51.624;5.886;2023-06-14T15:02:23;2.75;;;1.48;;
62707;SDS011;48769;51.624;5.886;2023-06-14T15:04:49;5.63;;;1.48;;
62707;SDS011;48769;51.624;5.886;2023-06-14T15:07:14;4.18;;;1.25;;